createdAt,value
2023-02-06T00:00:52.161Z,15.55
2023-02-06T00:03:20.188Z,14.57
2023-02-06T00:05:56.049Z,12.25
2023-02-06T00:08:22.892Z,10.30
2023-02-06T00:10:49.537Z,8.60
2023-02-06T00:13:16.077Z,12.50
2023-02-06T00:15:42.969Z,17.40
2023-02-06T00:18:09.603Z,14.15
2023-02-06T00:20:37.063Z,11.38
2023-02-06T00:23:04.272Z,13.77
2023-02-06T00:25:31.166Z,15.05
2023-02-06T00:27:57.765Z,11.48
2023-02-06T00:30:24.440Z,7.72
2023-02-06T00:32:51.351Z,15.20
2023-02-06T00:35:18.035Z,13.87
2023-02-06T00:37:44.594Z,12.45
2023-02-06T00:40:11.837Z,13.70
2023-02-06T00:42:38.534Z,11.95
2023-02-06T00:45:06.351Z,19.27
2023-02-06T00:47:33.060Z,12.63
2023-02-06T00:49:59.601Z,10.50
2023-02-06T00:52:26.233Z,9.55
2023-02-06T00:54:52.969Z,13.15
2023-02-06T00:57:19.570Z,9.00
2023-02-06T00:59:46.137Z,9.23
2023-02-06T01:02:12.647Z,14.23
2023-02-06T01:04:39.240Z,14.00
2023-02-06T01:07:05.783Z,13.75
2023-02-06T01:09:32.434Z,11.50
2023-02-06T01:11:59.048Z,14.67
2023-02-06T01:14:25.629Z,11.43
2023-02-06T01:16:52.245Z,14.10
2023-02-06T01:19:18.868Z,11.93
2023-02-06T01:21:45.427Z,11.10
2023-02-06T01:24:12.024Z,12.93
2023-02-06T01:26:38.755Z,14.32
2023-02-06T01:29:05.424Z,13.63
2023-02-06T01:31:32.426Z,13.48
2023-02-06T01:34:00.564Z,9.52
2023-02-06T01:36:27.759Z,14.73
2023-02-06T01:38:54.422Z,11.75
2023-02-06T01:41:22.972Z,15.75
2023-02-06T01:44:11.395Z,13.43
2023-02-06T01:46:39.749Z,12.77
2023-02-06T01:49:10.927Z,13.10
2023-02-06T01:51:38.387Z,10.75
2023-02-06T01:54:07.622Z,13.60
2023-02-06T01:56:40.370Z,11.63
2023-02-06T01:59:06.978Z,9.90
2023-02-06T02:01:33.903Z,9.60
2023-02-06T02:04:06.512Z,11.48
2023-02-06T02:06:33.691Z,9.93
2023-02-06T02:09:02.809Z,9.27
2023-02-06T02:11:37.987Z,11.25
2023-02-06T02:14:08.392Z,11.30
2023-02-06T02:17:03.357Z,9.93
2023-02-06T02:19:39.876Z,11.57
2023-02-06T02:22:18.389Z,8.02
2023-02-06T02:24:55.973Z,8.82
2023-02-06T02:27:57.524Z,13.00
2023-02-06T02:30:24.969Z,7.72
2023-02-06T02:32:55.508Z,12.27
2023-02-06T02:35:29.070Z,11.02
2023-02-06T02:38:03.636Z,15.10
2023-02-06T02:40:47.592Z,16.00
2023-02-06T02:43:28.906Z,5.22
2023-02-06T02:46:18.603Z,12.55
2023-02-06T02:48:49.084Z,12.93
2023-02-06T02:51:16.447Z,8.73
2023-02-06T02:53:43.123Z,10.23
2023-02-06T02:56:16.801Z,12.98
2023-02-06T02:58:46.136Z,10.90
2023-02-06T03:01:19.518Z,7.72
2023-02-06T03:03:48.210Z,12.68
2023-02-06T03:06:28.045Z,14.80
2023-02-06T03:09:03.023Z,11.38
2023-02-06T03:11:30.467Z,9.07
2023-02-06T03:14:06.151Z,9.40
2023-02-06T03:16:39.439Z,9.93
2023-02-06T03:19:14.076Z,7.47
2023-02-06T03:21:42.993Z,5.90
2023-02-06T03:24:16.945Z,16.52
2023-02-06T03:26:45.287Z,12.48
2023-02-06T03:29:15.429Z,8.02
2023-02-06T03:31:57.718Z,9.33
2023-02-06T03:34:35.169Z,8.98
2023-02-06T03:37:02.246Z,7.65
2023-02-06T03:39:29.176Z,7.38
2023-02-06T03:41:59.826Z,16.23
2023-02-06T03:44:30.618Z,9.50
2023-02-06T03:46:59.630Z,9.75
2023-02-06T03:49:29.698Z,12.25
2023-02-06T03:52:01.992Z,9.20
2023-02-06T03:54:30.115Z,5.97
2023-02-06T03:56:59.814Z,6.83
2023-02-06T03:59:26.740Z,4.65
2023-02-06T04:01:57.423Z,7.07
2023-02-06T04:04:29.369Z,6.72
2023-02-06T04:07:00.391Z,7.40
2023-02-06T04:09:27.013Z,11.27
2023-02-06T04:11:53.596Z,10.63
2023-02-06T04:14:20.218Z,14.32
2023-02-06T04:16:46.957Z,8.15
2023-02-06T04:19:13.521Z,13.25
2023-02-06T04:21:40.099Z,10.23
2023-02-06T04:24:06.743Z,7.90
2023-02-06T04:26:33.383Z,14.77
2023-02-06T04:29:00.001Z,11.25
2023-02-06T04:31:27.014Z,10.75
2023-02-06T04:33:53.630Z,10.57
2023-02-06T04:36:20.217Z,7.65
2023-02-06T04:38:46.761Z,7.57
2023-02-06T04:41:13.330Z,6.93
2023-02-06T04:43:39.909Z,7.28
2023-02-06T04:46:06.521Z,10.47
2023-02-06T04:48:33.175Z,13.65
2023-02-06T04:50:59.831Z,7.68
2023-02-06T04:53:26.393Z,11.63
2023-02-06T04:55:52.960Z,14.05
2023-02-06T04:58:19.579Z,15.43
2023-02-06T05:00:46.061Z,9.88
2023-02-06T05:03:12.612Z,10.45
2023-02-06T05:05:39.212Z,11.32
2023-02-06T05:08:05.851Z,8.27
2023-02-06T05:10:32.409Z,8.93
2023-02-06T05:12:59.013Z,5.38
2023-02-06T05:15:25.587Z,13.00
2023-02-06T05:17:52.148Z,7.63
2023-02-06T05:20:19.086Z,5.38
2023-02-06T05:22:45.672Z,13.03
2023-02-06T05:25:12.157Z,6.18
2023-02-06T05:27:38.819Z,5.82
2023-02-06T05:30:05.685Z,22.98
2023-02-06T05:32:32.299Z,7.68
2023-02-06T05:34:59.807Z,13.33
2023-02-06T05:37:26.545Z,10.45
2023-02-06T05:39:53.204Z,8.63
2023-02-06T05:42:19.805Z,6.95
2023-02-06T05:44:46.383Z,6.80
2023-02-06T05:47:12.975Z,14.13
2023-02-06T05:49:39.519Z,6.53
2023-02-06T05:52:06.347Z,9.60
2023-02-06T05:54:32.953Z,5.88
2023-02-06T05:56:59.621Z,4.70
2023-02-06T05:59:26.210Z,3.50
2023-02-06T06:01:52.772Z,10.85
2023-02-06T06:04:19.664Z,6.47
2023-02-06T06:06:46.335Z,9.45
2023-02-06T06:09:12.948Z,8.95
2023-02-06T06:11:39.546Z,11.57
2023-02-06T06:14:06.397Z,12.40
2023-02-06T06:16:33.319Z,6.43
2023-02-06T06:18:59.949Z,5.78
2023-02-06T06:21:26.554Z,9.15
2023-02-06T06:23:53.248Z,8.37
2023-02-06T06:26:19.998Z,7.63
2023-02-06T06:28:46.790Z,9.48
2023-02-06T06:31:13.652Z,14.02
2023-02-06T06:33:40.626Z,14.13
2023-02-06T06:36:09.295Z,14.90
2023-02-06T06:38:35.951Z,7.53
2023-02-06T06:41:03.021Z,12.13
2023-02-06T06:43:30.001Z,10.40
2023-02-06T06:45:57.027Z,5.00
2023-02-06T06:48:23.728Z,6.33
2023-02-06T06:50:50.408Z,9.50
2023-02-06T06:53:17.144Z,7.55
2023-02-06T06:55:43.807Z,13.25
2023-02-06T06:58:10.749Z,11.25
2023-02-06T07:04:37.707Z,7.60
2023-02-06T07:07:39.462Z,6.40
2023-02-06T07:10:07.721Z,12.82
2023-02-06T07:12:34.791Z,12.10
2023-02-06T07:15:01.566Z,8.67
2023-02-06T07:17:28.142Z,11.63
2023-02-06T07:19:54.717Z,9.85
2023-02-06T07:22:21.319Z,9.73
2023-02-06T07:24:48.284Z,14.05
2023-02-06T07:27:15.282Z,11.63
2023-02-06T07:29:43.097Z,11.80
2023-02-06T07:32:09.956Z,12.10
2023-02-06T07:34:36.682Z,10.18
2023-02-06T07:37:04.221Z,14.73
2023-02-06T07:39:31.099Z,9.50
2023-02-06T07:41:57.714Z,12.98
2023-02-06T07:44:24.258Z,7.07
2023-02-06T07:46:52.856Z,9.98
2023-02-06T07:49:19.431Z,9.40
2023-02-06T07:51:46.305Z,11.70
2023-02-06T07:54:13.245Z,13.40
2023-02-06T07:56:40.179Z,17.60
2023-02-06T07:59:07.675Z,8.23
2023-02-06T08:01:34.283Z,9.60
2023-02-06T08:04:00.911Z,9.93
2023-02-06T08:06:27.680Z,10.30
2023-02-06T08:08:56.086Z,16.33
2023-02-06T08:11:25.222Z,11.90
2023-02-06T08:13:51.788Z,14.68
2023-02-06T08:16:21.521Z,12.60
2023-02-06T08:18:48.170Z,11.73
2023-02-06T08:21:17.985Z,13.82
2023-02-06T08:23:44.891Z,9.95
2023-02-06T08:26:16.675Z,12.90
2023-02-06T08:28:47.370Z,14.40
2023-02-06T08:31:18.096Z,13.73
2023-02-06T08:33:45.470Z,12.75
2023-02-06T08:36:13.614Z,11.93
2023-02-06T08:38:40.623Z,12.25
2023-02-06T08:41:17.498Z,15.80
2023-02-06T08:43:46.798Z,12.73
2023-02-06T08:46:14.348Z,11.50
2023-02-06T08:48:41.025Z,16.27
2023-02-06T08:51:09.538Z,9.55
2023-02-06T08:53:36.855Z,10.43
2023-02-06T08:56:09.209Z,10.23
2023-02-06T08:58:38.815Z,13.35
2023-02-06T09:01:07.852Z,11.52
2023-02-06T09:03:34.980Z,16.95
2023-02-06T09:06:09.814Z,15.57
2023-02-06T09:08:38.547Z,8.07
2023-02-06T09:11:12.803Z,12.57
2023-02-06T09:13:40.637Z,12.40
2023-02-06T09:16:08.158Z,11.15
2023-02-06T09:18:35.465Z,10.23
2023-02-06T09:21:06.240Z,12.10
2023-02-06T09:23:33.121Z,12.05
2023-02-06T09:25:59.836Z,11.65
2023-02-06T09:28:26.496Z,12.10
2023-02-06T09:30:53.205Z,14.70
2023-02-06T09:33:20.030Z,17.55
2023-02-06T09:35:46.898Z,10.27
2023-02-06T09:38:13.533Z,13.82
2023-02-06T09:40:40.271Z,12.60
2023-02-06T09:43:06.984Z,9.70
2023-02-06T09:45:34.063Z,13.40
2023-02-06T09:48:14.421Z,13.90
2023-02-06T09:51:00.721Z,10.38
2023-02-06T09:53:55.108Z,14.07
2023-02-06T09:56:32.631Z,10.93
2023-02-06T09:59:05.947Z,12.55
2023-02-06T10:01:45.012Z,13.15
2023-02-06T10:05:35.568Z,15.52
2023-02-06T10:08:28.800Z,14.95
2023-02-06T10:11:01.190Z,10.30
2023-02-06T10:16:41.080Z,10.82
2023-02-06T10:19:15.845Z,11.55
2023-02-06T10:21:53.516Z,13.65
2023-02-06T10:24:32.283Z,12.73
2023-02-06T10:27:03.118Z,16.08
2023-02-06T10:29:32.665Z,12.98
2023-02-06T10:32:04.973Z,12.40
2023-02-06T10:34:47.204Z,12.00
2023-02-06T10:37:28.191Z,17.23
2023-02-06T10:40:15.921Z,11.95
2023-02-06T10:42:56.175Z,12.55
2023-02-06T10:45:36.642Z,11.82
2023-02-06T10:48:47.553Z,9.65
2023-02-06T10:55:19.615Z,13.13
2023-02-06T10:57:47.782Z,9.40
2023-02-06T11:00:24.009Z,17.30
2023-02-06T11:03:07.069Z,13.25
2023-02-06T11:05:34.499Z,11.27
2023-02-06T11:08:16.198Z,12.48
2023-02-06T11:10:44.285Z,9.20
2023-02-06T11:13:15.309Z,8.38
2023-02-06T11:16:09.382Z,12.27
2023-02-06T11:18:42.887Z,12.07
2023-02-06T11:21:12.848Z,10.55
2023-02-06T11:23:41.285Z,10.27
2023-02-06T11:26:15.747Z,13.90
2023-02-06T11:28:52.441Z,12.18
2023-02-06T11:31:21.326Z,13.13
2023-02-06T11:33:52.458Z,11.77
2023-02-06T11:36:27.078Z,8.77
2023-02-06T11:38:56.006Z,13.93
2023-02-06T11:41:22.549Z,7.35
2023-02-06T11:43:51.768Z,9.50
2023-02-06T11:46:24.363Z,9.63
2023-02-06T11:48:58.586Z,6.97
2023-02-06T11:51:26.331Z,12.07
2023-02-06T11:53:57.997Z,8.98
2023-02-06T11:56:25.153Z,5.83
2023-02-06T11:59:06.029Z,11.63
2023-02-06T12:01:42.855Z,12.80
2023-02-06T12:04:17.192Z,9.98
2023-02-06T12:06:43.922Z,9.18
2023-02-06T12:09:12.902Z,6.67
2023-02-06T12:11:52.580Z,9.20
2023-02-06T12:14:30.763Z,10.27
2023-02-06T12:16:58.827Z,10.18
2023-02-06T12:19:31.755Z,10.93
2023-02-06T12:22:04.096Z,9.80
2023-02-06T12:24:37.343Z,14.07
2023-02-06T12:27:15.507Z,9.65
2023-02-06T12:29:46.739Z,8.18
2023-02-06T12:32:18.684Z,7.88
2023-02-06T12:34:54.026Z,9.83
2023-02-06T12:37:31.804Z,5.53
2023-02-06T12:40:00.667Z,10.60
2023-02-06T12:42:36.318Z,12.00
2023-02-06T12:45:17.629Z,10.45
2023-02-06T12:47:49.243Z,9.53
2023-02-06T12:50:23.177Z,9.43
2023-02-06T12:52:56.041Z,7.35
2023-02-06T12:55:27.540Z,10.85
2023-02-06T12:57:55.257Z,5.15
2023-02-06T13:00:29.314Z,7.13
2023-02-06T13:03:13.298Z,5.40
2023-02-06T13:05:44.077Z,10.90
2023-02-06T13:08:16.596Z,6.32
2023-02-06T13:10:43.643Z,7.82
2023-02-06T13:13:28.582Z,6.87
2023-02-06T13:15:57.884Z,5.68
2023-02-06T13:18:52.647Z,9.00
2023-02-06T13:21:29.868Z,7.50
2023-02-06T13:24:02.602Z,8.93
2023-02-06T13:26:51.648Z,6.47
2023-02-06T13:29:29.319Z,6.38
2023-02-06T13:32:29.489Z,9.85
2023-02-06T13:35:07.326Z,9.75
2023-02-06T13:37:39.821Z,8.75
2023-02-06T13:40:23.080Z,8.87
2023-02-06T13:43:03.530Z,8.55
2023-02-06T13:45:52.587Z,7.63
2023-02-06T13:48:33.347Z,8.65
2023-02-06T13:51:05.064Z,9.80
2023-02-06T13:53:35.618Z,6.70
2023-02-06T13:56:19.809Z,8.40
2023-02-06T13:58:51.482Z,7.15
2023-02-06T14:01:23.104Z,9.48
2023-02-06T14:03:51.603Z,9.65
2023-02-06T14:06:48.643Z,7.60
2023-02-06T14:09:51.709Z,10.02
2023-02-06T14:12:34.791Z,11.18
2023-02-06T14:15:20.087Z,8.90
2023-02-06T14:18:05.612Z,6.57
2023-02-06T14:20:54.530Z,9.77
2023-02-06T14:23:41.109Z,10.43
2023-02-06T14:26:23.594Z,13.13
2023-02-06T14:28:57.036Z,8.90
2023-02-06T14:31:55.707Z,21.30
2023-02-06T14:34:32.757Z,8.43
2023-02-06T14:38:23.477Z,10.93
2023-02-06T14:41:28.889Z,8.00
2023-02-06T14:43:55.998Z,10.80
2023-02-06T14:46:22.803Z,8.35
2023-02-06T14:48:57.149Z,5.70
2023-02-06T14:51:28.707Z,6.95
2023-02-06T14:54:01.706Z,7.38
2023-02-06T14:56:31.623Z,6.10
2023-02-06T14:59:16.319Z,10.32
2023-02-06T15:01:47.768Z,4.83
2023-02-06T15:04:17.972Z,9.98
2023-02-06T15:07:23.950Z,7.43
2023-02-06T15:09:59.487Z,10.50
2023-02-06T15:12:29.018Z,8.07
2023-02-06T15:15:02.898Z,8.67
2023-02-06T15:17:31.824Z,9.75
2023-02-06T15:20:15.872Z,9.23
2023-02-06T15:22:42.477Z,11.23
2023-02-06T15:25:36.337Z,10.80
2023-02-06T15:28:05.873Z,9.67
2023-02-06T15:30:35.188Z,8.75
2023-02-06T15:33:02.288Z,6.55
2023-02-06T15:35:36.681Z,11.20
2023-02-06T15:38:06.651Z,11.70
2023-02-06T15:40:39.061Z,8.43
2023-02-06T15:43:06.267Z,13.38
2023-02-06T15:45:39.120Z,8.60
2023-02-06T15:48:20.121Z,12.77
2023-02-06T15:51:03.432Z,21.23
2023-02-06T15:53:34.626Z,10.90
2023-02-06T15:56:04.001Z,13.57
2023-02-06T16:02:47.750Z,7.20
2023-02-06T16:05:45.002Z,5.13
2023-02-06T16:10:54.714Z,8.07
2023-02-06T16:13:50.515Z,8.90
2023-02-06T16:16:17.188Z,6.28
2023-02-06T16:18:43.896Z,8.88
2023-02-06T16:21:16.384Z,8.60
2023-02-06T16:24:05.239Z,9.75
2023-02-06T16:26:44.018Z,8.43
2023-02-06T16:29:10.538Z,4.55
2023-02-06T16:31:40.789Z,10.65
2023-02-06T16:34:33.906Z,13.10
2023-02-06T16:37:00.523Z,7.45
2023-02-06T16:39:28.268Z,9.93
2023-02-06T16:41:54.969Z,7.43
2023-02-06T16:44:21.753Z,6.50
2023-02-06T16:46:48.375Z,7.13
2023-02-06T16:49:22.168Z,8.07
2023-02-06T16:51:52.266Z,11.13
2023-02-06T16:54:24.848Z,11.52
2023-02-06T16:56:52.714Z,6.13
2023-02-06T16:59:19.666Z,13.73
2023-02-06T17:01:46.326Z,11.02
2023-02-06T17:04:12.853Z,9.05
2023-02-06T17:06:39.791Z,10.13
2023-02-06T17:09:10.879Z,11.50
2023-02-06T17:11:38.571Z,13.27
2023-02-06T17:14:06.368Z,6.57
2023-02-06T17:16:33.750Z,8.18
2023-02-06T17:19:00.698Z,6.97
2023-02-06T17:21:29.779Z,6.32
2023-02-06T17:23:56.388Z,8.00
2023-02-06T17:26:23.908Z,11.07
2023-02-06T17:28:51.153Z,6.10
2023-02-06T17:31:18.539Z,7.72
2023-02-06T17:33:45.542Z,5.05
2023-02-06T17:36:17.320Z,11.70
2023-02-06T17:38:44.288Z,9.10
2023-02-06T17:41:10.933Z,8.32
2023-02-06T17:43:37.676Z,10.00
2023-02-06T17:46:05.840Z,6.07
2023-02-06T17:48:36.904Z,7.87
2023-02-06T17:51:05.369Z,6.25
2023-02-06T17:53:31.970Z,10.13
2023-02-06T17:56:05.629Z,5.72
2023-02-06T17:58:32.392Z,5.03
2023-02-06T18:00:59.102Z,4.37
2023-02-06T18:03:25.745Z,5.82
2023-02-06T18:05:58.903Z,8.13
2023-02-06T18:08:25.941Z,7.85
2023-02-06T18:10:52.600Z,7.18
2023-02-06T18:13:21.155Z,7.20
2023-02-06T18:15:50.875Z,7.25
2023-02-06T18:18:17.465Z,9.75
2023-02-06T18:20:44.271Z,6.85
2023-02-06T18:23:11.470Z,8.38
2023-02-06T18:25:43.173Z,7.57
2023-02-06T18:28:14.893Z,7.63
2023-02-06T18:30:42.208Z,7.32
2023-02-06T18:33:11.270Z,10.05
2023-02-06T18:35:39.569Z,7.25
2023-02-06T18:38:09.728Z,12.50
2023-02-06T18:40:38.542Z,8.88
2023-02-06T18:43:06.953Z,12.07
2023-02-06T18:45:37.305Z,10.05
2023-02-06T18:48:05.877Z,7.13
2023-02-06T18:50:33.012Z,13.27
2023-02-06T18:52:59.842Z,10.40
2023-02-06T18:55:26.787Z,8.48
2023-02-06T18:57:53.525Z,9.60
2023-02-06T19:00:22.682Z,12.48
2023-02-06T19:02:49.688Z,11.20
2023-02-06T19:05:17.286Z,11.60
2023-02-06T19:07:48.381Z,15.85
2023-02-06T19:10:16.281Z,15.23
2023-02-06T19:12:43.368Z,15.88
2023-02-06T19:15:30.990Z,27.43
2023-02-06T19:17:57.618Z,21.20
2023-02-06T19:20:24.286Z,15.27
2023-02-06T19:22:52.485Z,32.20
2023-02-06T19:25:19.505Z,24.60
2023-02-06T19:27:46.164Z,33.33
2023-02-06T19:30:13.517Z,27.30
2023-02-06T19:32:40.434Z,37.47
2023-02-06T19:35:07.286Z,36.47
2023-02-06T19:37:33.897Z,40.80
2023-02-06T19:40:00.544Z,38.90
2023-02-06T19:42:27.320Z,34.50
2023-02-06T19:44:54.925Z,32.15
2023-02-06T19:47:22.298Z,32.35
2023-02-06T19:49:52.809Z,41.72
2023-02-06T19:52:19.715Z,33.57
2023-02-06T19:54:47.896Z,37.55
2023-02-06T19:57:16.034Z,31.95
2023-02-06T19:59:42.796Z,38.17
2023-02-06T20:02:12.915Z,34.08
2023-02-06T20:04:39.921Z,29.17
2023-02-06T20:07:06.595Z,35.15
2023-02-06T20:09:33.408Z,33.03
2023-02-06T20:12:00.316Z,29.80
2023-02-06T20:14:27.960Z,32.83
2023-02-06T20:16:54.901Z,27.33
2023-02-06T20:19:25.630Z,28.40
2023-02-06T20:21:58.500Z,27.17
2023-02-06T20:24:28.189Z,27.55
2023-02-06T20:26:57.473Z,22.73
2023-02-06T20:29:28.219Z,27.70
2023-02-06T20:31:56.057Z,22.85
2023-02-06T20:34:23.711Z,21.75
2023-02-06T20:36:52.776Z,21.88
2023-02-06T20:39:20.013Z,17.23
2023-02-06T20:41:49.453Z,16.10
2023-02-06T20:44:16.958Z,19.73
2023-02-06T20:46:43.673Z,14.85
2023-02-06T20:49:16.601Z,13.50
2023-02-06T20:51:43.468Z,18.70
2023-02-06T20:54:11.704Z,14.47
2023-02-06T20:56:39.770Z,15.40
2023-02-06T20:59:06.970Z,11.77
2023-02-06T21:01:34.049Z,14.60
2023-02-06T21:04:04.651Z,10.75
2023-02-06T21:06:33.262Z,11.60
2023-02-06T21:09:01.073Z,9.18
2023-02-06T21:11:30.375Z,12.52
2023-02-06T21:13:58.771Z,10.43
2023-02-06T21:16:26.732Z,12.27
2023-02-06T21:18:54.295Z,12.27
2023-02-06T21:21:21.503Z,12.65
2023-02-06T21:23:48.791Z,13.18
2023-02-06T21:26:17.930Z,11.95
2023-02-06T21:28:46.336Z,11.60
2023-02-06T21:31:16.196Z,14.53
2023-02-06T21:33:45.298Z,10.48
2023-02-06T21:36:11.962Z,12.25
2023-02-06T21:38:39.408Z,12.90
2023-02-06T21:41:08.821Z,8.90
2023-02-06T21:43:35.538Z,15.60
2023-02-06T21:46:03.384Z,19.40
2023-02-06T21:48:30.527Z,13.10
2023-02-06T21:50:57.258Z,11.57
2023-02-06T21:53:24.107Z,12.73
2023-02-06T21:55:50.764Z,14.63
2023-02-06T21:58:17.420Z,15.07
2023-02-06T22:00:45.782Z,13.70
2023-02-06T22:03:13.373Z,12.15
2023-02-06T22:05:41.434Z,11.73
2023-02-06T22:08:08.062Z,13.77
2023-02-06T22:10:37.363Z,10.10
2023-02-06T22:13:06.686Z,10.43
2023-02-06T22:15:34.130Z,14.05
2023-02-06T22:18:01.112Z,10.07
2023-02-06T22:20:29.862Z,10.60
2023-02-06T22:22:56.405Z,9.80
2023-02-06T22:25:24.187Z,11.30
2023-02-06T22:27:50.756Z,11.68
2023-02-06T22:30:17.669Z,14.35
2023-02-06T22:32:44.190Z,10.03
2023-02-06T22:35:10.729Z,13.10
2023-02-06T22:37:37.334Z,18.13
2023-02-06T22:40:04.319Z,8.65
2023-02-06T22:42:30.978Z,10.85
2023-02-06T22:44:57.584Z,11.97
2023-02-06T22:47:24.101Z,12.48
2023-02-06T22:49:52.717Z,12.38
2023-02-06T22:52:37.749Z,8.68
2023-02-06T22:55:05.921Z,9.25
2023-02-06T22:57:35.226Z,16.73
2023-02-06T23:00:02.107Z,8.60
2023-02-06T23:02:28.646Z,6.88
2023-02-06T23:04:55.253Z,12.00
2023-02-06T23:07:21.822Z,10.07
2023-02-06T23:09:48.430Z,11.07
2023-02-06T23:12:16.226Z,12.98
2023-02-06T23:14:42.965Z,9.73
2023-02-06T23:17:10.794Z,14.10
2023-02-06T23:19:38.889Z,14.63
2023-02-06T23:22:05.664Z,12.90
2023-02-06T23:24:32.307Z,8.38
2023-02-06T23:26:58.801Z,12.73
2023-02-06T23:29:25.318Z,14.00
2023-02-06T23:31:51.924Z,17.55
2023-02-06T23:34:20.329Z,15.17
2023-02-06T23:36:47.360Z,11.27
2023-02-06T23:39:14.173Z,13.23
2023-02-06T23:41:40.794Z,12.98
2023-02-06T23:44:08.990Z,14.20
2023-02-06T23:46:37.891Z,10.83
2023-02-06T23:49:06.403Z,14.40
2023-02-06T23:51:33.673Z,13.20
2023-02-06T23:54:00.271Z,16.20
2023-02-06T23:56:29.127Z,15.68
2023-02-06T23:58:57.501Z,11.53
